Capitol Logistics 3257


KRSW
Southwest Florida International Airport
Fort Myers, Florida, US
KMIA
Miami International Airport
Miami, Florida, US

Activity Log

Date Flight Route Aircraft Duration
06/17/2019 CPX657 CYY CYY9 SF34 0h 32m

Route Details

Aircraft Information
Primary: Saab 340AF
Backup: Not Available
Route Data
Distance: 91nm
Sched. Duration: 1h 00m
Avg. Duration: 0h 32m (-68m)
Times Flown: 1
Recm'd Route: CYY CYY9
Planned Altitude: 15,000ft
Origin Wx: KRSW 281153Z 02004KT 10SM OVC048 09/05 A3025 RMK AO2 SLP240 T00890050 10089 20067 53013
Dest. Wx: KMIA 281153Z 31008KT 10SM BKN050 11/04 A3023 RMK AO2 SLP237 T01110039 10128 20106 53013
Notes:

Financial History
Total Freight: 5,440lbs
Average Load: 5,440lbs/flt
Fuel Used: 534lbs
Avg. Fuel Used: 534lbs/flt
Fuel Expense: $433
Avg. Fuel Expense: $433
Avg. Fuel Cost: $0.81/lbs
Total Gross Income: $6,093
Pilot Pay: $149
Total Expenses: $710
Total Revenue: $4,823
Average Revenue: $6,092.80